sensor_id;sensor_type;location;lat;lon;timestamp;P1;durP1;ratioP1;P2;durP2;ratioP2
47155;SDS011;32908;52.344;16.858;2023-11-21T00:01:14;53.50;;;25.00;;
47155;SDS011;32908;52.344;16.858;2023-11-21T00:03:45;60.30;;;25.40;;
47155;SDS011;32908;52.344;16.858;2023-11-21T00:06:15;55.60;;;24.00;;
47155;SDS011;32908;52.344;16.858;2023-11-21T00:08:45;53.80;;;22.00;;
47155;SDS011;32908;52.344;16.858;2023-11-21T00:11:16;54.70;;;23.70;;
47155;SDS011;32908;52.344;16.858;2023-11-21T00:13:46;52.80;;;23.50;;
47155;SDS011;32908;52.344;16.858;2023-11-21T00:16:17;47.50;;;22.40;;
47155;SDS011;32908;52.344;16.858;2023-11-21T00:18:47;48.80;;;21.50;;
47155;SDS011;32908;52.344;16.858;2023-11-21T00:21:18;51.60;;;24.10;;
47155;SDS011;32908;52.344;16.858;2023-11-21T00:23:49;59.90;;;28.00;;
47155;SDS011;32908;52.344;16.858;2023-11-21T00:26:19;48.20;;;21.20;;
47155;SDS011;32908;52.344;16.858;2023-11-21T00:28:49;60.60;;;24.70;;
47155;SDS011;32908;52.344;16.858;2023-11-21T00:31:20;59.50;;;24.30;;
47155;SDS011;32908;52.344;16.858;2023-11-21T00:33:50;58.80;;;25.70;;
47155;SDS011;32908;52.344;16.858;2023-11-21T00:36:22;57.70;;;26.20;;
47155;SDS011;32908;52.344;16.858;2023-11-21T00:38:53;54.40;;;27.60;;
47155;SDS011;32908;52.344;16.858;2023-11-21T00:41:24;52.30;;;24.80;;
47155;SDS011;32908;52.344;16.858;2023-11-21T00:43:55;57.40;;;25.80;;
47155;SDS011;32908;52.344;16.858;2023-11-21T00:46:27;61.90;;;26.00;;
47155;SDS011;32908;52.344;16.858;2023-11-21T00:48:57;60.30;;;26.30;;
47155;SDS011;32908;52.344;16.858;2023-11-21T00:51:27;57.90;;;25.90;;
47155;SDS011;32908;52.344;16.858;2023-11-21T00:53:58;61.80;;;29.80;;
47155;SDS011;32908;52.344;16.858;2023-11-21T00:56:28;58.20;;;29.50;;
47155;SDS011;32908;52.344;16.858;2023-11-21T00:58:59;59.40;;;24.90;;
47155;SDS011;32908;52.344;16.858;2023-11-21T01:01:30;54.70;;;26.50;;
47155;SDS011;32908;52.344;16.858;2023-11-21T01:04:00;64.40;;;28.90;;
47155;SDS011;32908;52.344;16.858;2023-11-21T01:06:31;57.70;;;28.50;;
47155;SDS011;32908;52.344;16.858;2023-11-21T01:09:02;58.50;;;26.70;;
47155;SDS011;32908;52.344;16.858;2023-11-21T01:11:36;59.20;;;27.90;;
47155;SDS011;32908;52.344;16.858;2023-11-21T01:14:06;47.00;;;23.40;;
47155;SDS011;32908;52.344;16.858;2023-11-21T01:16:38;53.10;;;26.70;;
47155;SDS011;32908;52.344;16.858;2023-11-21T01:19:08;50.50;;;23.20;;
47155;SDS011;32908;52.344;16.858;2023-11-21T01:21:39;59.20;;;27.90;;
47155;SDS011;32908;52.344;16.858;2023-11-21T01:24:10;55.20;;;27.10;;
47155;SDS011;32908;52.344;16.858;2023-11-21T01:26:40;51.20;;;25.90;;
47155;SDS011;32908;52.344;16.858;2023-11-21T01:29:11;43.90;;;23.30;;
47155;SDS011;32908;52.344;16.858;2023-11-21T01:31:41;50.90;;;25.60;;
47155;SDS011;32908;52.344;16.858;2023-11-21T01:34:12;44.70;;;24.40;;
47155;SDS011;32908;52.344;16.858;2023-11-21T01:36:43;48.40;;;23.50;;
47155;SDS011;32908;52.344;16.858;2023-11-21T01:39:15;50.10;;;24.10;;
47155;SDS011;32908;52.344;16.858;2023-11-21T01:41:51;52.90;;;24.00;;
47155;SDS011;32908;52.344;16.858;2023-11-21T01:44:21;50.50;;;23.80;;
47155;SDS011;32908;52.344;16.858;2023-11-21T01:46:52;45.00;;;23.10;;
47155;SDS011;32908;52.344;16.858;2023-11-21T01:49:22;59.70;;;26.40;;
47155;SDS011;32908;52.344;16.858;2023-11-21T01:51:53;58.10;;;26.60;;
47155;SDS011;32908;52.344;16.858;2023-11-21T01:54:24;55.30;;;25.20;;
47155;SDS011;32908;52.344;16.858;2023-11-21T01:56:57;50.80;;;23.40;;
47155;SDS011;32908;52.344;16.858;2023-11-21T01:59:32;51.80;;;24.30;;
47155;SDS011;32908;52.344;16.858;2023-11-21T02:02:05;50.10;;;24.00;;
47155;SDS011;32908;52.344;16.858;2023-11-21T02:04:36;55.90;;;25.00;;
47155;SDS011;32908;52.344;16.858;2023-11-21T02:07:07;54.20;;;25.30;;
47155;SDS011;32908;52.344;16.858;2023-11-21T02:09:37;52.00;;;24.20;;
47155;SDS011;32908;52.344;16.858;2023-11-21T02:12:10;51.10;;;22.80;;
47155;SDS011;32908;52.344;16.858;2023-11-21T02:14:40;60.10;;;26.70;;
47155;SDS011;32908;52.344;16.858;2023-11-21T02:17:12;56.50;;;26.70;;
47155;SDS011;32908;52.344;16.858;2023-11-21T02:19:42;57.90;;;24.90;;
47155;SDS011;32908;52.344;16.858;2023-11-21T02:22:14;61.70;;;27.50;;
47155;SDS011;32908;52.344;16.858;2023-11-21T02:24:45;60.20;;;28.00;;
47155;SDS011;32908;52.344;16.858;2023-11-21T02:27:16;60.00;;;27.50;;
47155;SDS011;32908;52.344;16.858;2023-11-21T02:29:49;67.90;;;28.60;;
47155;SDS011;32908;52.344;16.858;2023-11-21T02:32:19;63.70;;;27.10;;
47155;SDS011;32908;52.344;16.858;2023-11-21T02:34:50;69.00;;;28.30;;
47155;SDS011;32908;52.344;16.858;2023-11-21T02:37:23;62.90;;;26.90;;
47155;SDS011;32908;52.344;16.858;2023-11-21T02:39:53;72.50;;;27.70;;
47155;SDS011;32908;52.344;16.858;2023-11-21T02:42:24;63.60;;;28.80;;
47155;SDS011;32908;52.344;16.858;2023-11-21T02:44:54;71.00;;;30.40;;
47155;SDS011;32908;52.344;16.858;2023-11-21T02:47:25;66.80;;;29.10;;
47155;SDS011;32908;52.344;16.858;2023-11-21T02:49:56;67.40;;;26.30;;
47155;SDS011;32908;52.344;16.858;2023-11-21T02:52:26;69.20;;;28.80;;
47155;SDS011;32908;52.344;16.858;2023-11-21T02:54:57;64.50;;;27.10;;
47155;SDS011;32908;52.344;16.858;2023-11-21T02:57:27;67.10;;;27.40;;
47155;SDS011;32908;52.344;16.858;2023-11-21T02:59:58;86.60;;;29.00;;
47155;SDS011;32908;52.344;16.858;2023-11-21T03:02:28;77.50;;;29.70;;
47155;SDS011;32908;52.344;16.858;2023-11-21T03:04:59;72.70;;;29.80;;
47155;SDS011;32908;52.344;16.858;2023-11-21T03:07:29;73.70;;;28.00;;
47155;SDS011;32908;52.344;16.858;2023-11-21T03:09:59;65.40;;;24.10;;
47155;SDS011;32908;52.344;16.858;2023-11-21T03:12:31;65.60;;;21.60;;
47155;SDS011;32908;52.344;16.858;2023-11-21T03:15:02;55.70;;;22.50;;
47155;SDS011;32908;52.344;16.858;2023-11-21T03:17:33;69.60;;;24.10;;
47155;SDS011;32908;52.344;16.858;2023-11-21T03:20:05;60.60;;;24.50;;
47155;SDS011;32908;52.344;16.858;2023-11-21T03:22:38;68.50;;;22.60;;
47155;SDS011;32908;52.344;16.858;2023-11-21T03:25:09;62.80;;;23.70;;
47155;SDS011;32908;52.344;16.858;2023-11-21T03:27:39;53.00;;;20.30;;
47155;SDS011;32908;52.344;16.858;2023-11-21T03:30:10;59.90;;;21.80;;
47155;SDS011;32908;52.344;16.858;2023-11-21T03:32:41;48.50;;;18.40;;
47155;SDS011;32908;52.344;16.858;2023-11-21T03:35:12;55.50;;;21.70;;
47155;SDS011;32908;52.344;16.858;2023-11-21T03:37:42;61.60;;;20.20;;
47155;SDS011;32908;52.344;16.858;2023-11-21T03:40:12;48.80;;;19.30;;
47155;SDS011;32908;52.344;16.858;2023-11-21T03:42:43;44.60;;;17.20;;
47155;SDS011;32908;52.344;16.858;2023-11-21T03:45:13;47.40;;;20.00;;
47155;SDS011;32908;52.344;16.858;2023-11-21T03:47:44;53.30;;;20.50;;
47155;SDS011;32908;52.344;16.858;2023-11-21T03:50:14;45.70;;;17.30;;
47155;SDS011;32908;52.344;16.858;2023-11-21T03:52:45;46.40;;;19.60;;
47155;SDS011;32908;52.344;16.858;2023-11-21T03:55:15;44.70;;;20.00;;
47155;SDS011;32908;52.344;16.858;2023-11-21T03:57:45;42.00;;;19.40;;
47155;SDS011;32908;52.344;16.858;2023-11-21T04:00:16;40.20;;;18.80;;
47155;SDS011;32908;52.344;16.858;2023-11-21T04:02:48;32.20;;;16.90;;
47155;SDS011;32908;52.344;16.858;2023-11-21T04:05:19;36.50;;;17.50;;
47155;SDS011;32908;52.344;16.858;2023-11-21T04:07:50;33.90;;;17.70;;
47155;SDS011;32908;52.344;16.858;2023-11-21T04:10:21;34.20;;;16.80;;
47155;SDS011;32908;52.344;16.858;2023-11-21T04:12:51;30.90;;;15.40;;
47155;SDS011;32908;52.344;16.858;2023-11-21T04:15:22;31.40;;;16.70;;
47155;SDS011;32908;52.344;16.858;2023-11-21T04:17:52;22.00;;;10.80;;
47155;SDS011;32908;52.344;16.858;2023-11-21T04:20:24;24.20;;;12.80;;
47155;SDS011;32908;52.344;16.858;2023-11-21T04:22:54;26.20;;;14.20;;
47155;SDS011;32908;52.344;16.858;2023-11-21T04:25:25;27.00;;;13.90;;
47155;SDS011;32908;52.344;16.858;2023-11-21T04:27:55;23.90;;;12.00;;
47155;SDS011;32908;52.344;16.858;2023-11-21T04:30:26;20.20;;;11.90;;
47155;SDS011;32908;52.344;16.858;2023-11-21T04:32:56;30.00;;;14.80;;
47155;SDS011;32908;52.344;16.858;2023-11-21T04:35:27;24.00;;;12.30;;
47155;SDS011;32908;52.344;16.858;2023-11-21T04:37:57;24.20;;;12.00;;
47155;SDS011;32908;52.344;16.858;2023-11-21T04:40:28;28.30;;;13.90;;
47155;SDS011;32908;52.344;16.858;2023-11-21T04:42:58;26.40;;;13.40;;
47155;SDS011;32908;52.344;16.858;2023-11-21T04:45:29;28.20;;;14.20;;
47155;SDS011;32908;52.344;16.858;2023-11-21T04:48:00;25.20;;;13.40;;
47155;SDS011;32908;52.344;16.858;2023-11-21T04:50:30;29.40;;;14.50;;
47155;SDS011;32908;52.344;16.858;2023-11-21T04:53:01;27.70;;;13.70;;
47155;SDS011;32908;52.344;16.858;2023-11-21T04:55:31;24.20;;;12.60;;
47155;SDS011;32908;52.344;16.858;2023-11-21T04:58:01;28.30;;;14.60;;
47155;SDS011;32908;52.344;16.858;2023-11-21T05:00:32;25.50;;;12.90;;
47155;SDS011;32908;52.344;16.858;2023-11-21T05:03:04;26.00;;;13.60;;
47155;SDS011;32908;52.344;16.858;2023-11-21T05:05:35;25.10;;;14.00;;
47155;SDS011;32908;52.344;16.858;2023-11-21T05:08:05;27.40;;;15.10;;
47155;SDS011;32908;52.344;16.858;2023-11-21T05:10:35;25.60;;;13.70;;
47155;SDS011;32908;52.344;16.858;2023-11-21T05:13:06;24.80;;;13.60;;
47155;SDS011;32908;52.344;16.858;2023-11-21T05:15:38;31.10;;;15.30;;
47155;SDS011;32908;52.344;16.858;2023-11-21T05:18:09;31.70;;;16.20;;
47155;SDS011;32908;52.344;16.858;2023-11-21T05:20:41;30.00;;;15.40;;
47155;SDS011;32908;52.344;16.858;2023-11-21T05:23:11;30.50;;;15.40;;
47155;SDS011;32908;52.344;16.858;2023-11-21T05:25:42;28.40;;;14.00;;
47155;SDS011;32908;52.344;16.858;2023-11-21T05:28:13;26.30;;;13.90;;
47155;SDS011;32908;52.344;16.858;2023-11-21T05:30:44;28.50;;;14.70;;
47155;SDS011;32908;52.344;16.858;2023-11-21T05:33:14;26.90;;;13.60;;
47155;SDS011;32908;52.344;16.858;2023-11-21T05:35:45;29.00;;;14.70;;
47155;SDS011;32908;52.344;16.858;2023-11-21T05:38:15;26.40;;;14.40;;
47155;SDS011;32908;52.344;16.858;2023-11-21T05:40:46;26.30;;;15.10;;
47155;SDS011;32908;52.344;16.858;2023-11-21T05:43:16;24.30;;;14.30;;
47155;SDS011;32908;52.344;16.858;2023-11-21T05:45:47;27.00;;;14.80;;
47155;SDS011;32908;52.344;16.858;2023-11-21T05:48:17;20.70;;;12.00;;
47155;SDS011;32908;52.344;16.858;2023-11-21T05:50:48;23.90;;;14.10;;
47155;SDS011;32908;52.344;16.858;2023-11-21T05:53:19;22.10;;;12.60;;
47155;SDS011;32908;52.344;16.858;2023-11-21T05:55:49;19.00;;;10.80;;
47155;SDS011;32908;52.344;16.858;2023-11-21T05:58:20;20.10;;;11.80;;
47155;SDS011;32908;52.344;16.858;2023-11-21T06:00:50;21.30;;;12.40;;
47155;SDS011;32908;52.344;16.858;2023-11-21T06:03:20;21.70;;;12.60;;
47155;SDS011;32908;52.344;16.858;2023-11-21T06:05:51;25.00;;;13.50;;
47155;SDS011;32908;52.344;16.858;2023-11-21T06:08:21;27.00;;;13.70;;
47155;SDS011;32908;52.344;16.858;2023-11-21T06:10:52;27.90;;;14.10;;
47155;SDS011;32908;52.344;16.858;2023-11-21T06:13:23;26.10;;;13.90;;
47155;SDS011;32908;52.344;16.858;2023-11-21T06:15:53;29.30;;;15.40;;
47155;SDS011;32908;52.344;16.858;2023-11-21T06:18:24;29.90;;;16.30;;
47155;SDS011;32908;52.344;16.858;2023-11-21T06:20:54;28.10;;;15.10;;
47155;SDS011;32908;52.344;16.858;2023-11-21T06:23:25;27.10;;;14.80;;
47155;SDS011;32908;52.344;16.858;2023-11-21T06:25:56;27.30;;;15.80;;
47155;SDS011;32908;52.344;16.858;2023-11-21T06:28:26;25.00;;;13.60;;
47155;SDS011;32908;52.344;16.858;2023-11-21T06:30:57;25.70;;;13.80;;
47155;SDS011;32908;52.344;16.858;2023-11-21T06:33:32;24.40;;;13.80;;
47155;SDS011;32908;52.344;16.858;2023-11-21T06:36:03;26.50;;;14.10;;
47155;SDS011;32908;52.344;16.858;2023-11-21T06:38:33;23.70;;;13.30;;
47155;SDS011;32908;52.344;16.858;2023-11-21T06:41:04;22.40;;;13.00;;
47155;SDS011;32908;52.344;16.858;2023-11-21T06:43:35;18.20;;;12.00;;
47155;SDS011;32908;52.344;16.858;2023-11-21T06:46:06;19.60;;;11.30;;
47155;SDS011;32908;52.344;16.858;2023-11-21T06:48:36;19.00;;;11.40;;
47155;SDS011;32908;52.344;16.858;2023-11-21T06:51:07;18.70;;;12.20;;
47155;SDS011;32908;52.344;16.858;2023-11-21T06:53:37;20.20;;;11.60;;
47155;SDS011;32908;52.344;16.858;2023-11-21T06:56:16;19.60;;;12.00;;
47155;SDS011;32908;52.344;16.858;2023-11-21T06:58:46;20.20;;;12.60;;
47155;SDS011;32908;52.344;16.858;2023-11-21T07:01:17;20.10;;;12.00;;
47155;SDS011;32908;52.344;16.858;2023-11-21T07:03:48;20.60;;;13.20;;
47155;SDS011;32908;52.344;16.858;2023-11-21T07:06:18;19.60;;;12.00;;
47155;SDS011;32908;52.344;16.858;2023-11-21T07:08:49;22.70;;;12.80;;
47155;SDS011;32908;52.344;16.858;2023-11-21T07:11:20;21.20;;;12.50;;
47155;SDS011;32908;52.344;16.858;2023-11-21T07:13:51;21.20;;;12.80;;
47155;SDS011;32908;52.344;16.858;2023-11-21T07:16:21;21.00;;;12.80;;
47155;SDS011;32908;52.344;16.858;2023-11-21T07:18:52;25.60;;;14.60;;
47155;SDS011;32908;52.344;16.858;2023-11-21T07:21:23;23.70;;;13.90;;
47155;SDS011;32908;52.344;16.858;2023-11-21T07:23:54;25.00;;;14.30;;
47155;SDS011;32908;52.344;16.858;2023-11-21T07:26:24;22.60;;;12.70;;
47155;SDS011;32908;52.344;16.858;2023-11-21T07:28:55;24.00;;;13.70;;
47155;SDS011;32908;52.344;16.858;2023-11-21T07:31:25;24.60;;;15.00;;
47155;SDS011;32908;52.344;16.858;2023-11-21T07:33:56;23.90;;;14.60;;
47155;SDS011;32908;52.344;16.858;2023-11-21T07:36:27;26.20;;;15.00;;
47155;SDS011;32908;52.344;16.858;2023-11-21T07:38:57;26.60;;;15.10;;
47155;SDS011;32908;52.344;16.858;2023-11-21T07:41:27;24.90;;;15.00;;
47155;SDS011;32908;52.344;16.858;2023-11-21T07:43:58;23.10;;;15.00;;
47155;SDS011;32908;52.344;16.858;2023-11-21T07:46:28;24.50;;;14.80;;
47155;SDS011;32908;52.344;16.858;2023-11-21T07:48:59;21.60;;;14.40;;
47155;SDS011;32908;52.344;16.858;2023-11-21T07:51:29;24.70;;;15.20;;
47155;SDS011;32908;52.344;16.858;2023-11-21T07:53:59;21.80;;;14.10;;
47155;SDS011;32908;52.344;16.858;2023-11-21T07:56:30;23.20;;;14.10;;
47155;SDS011;32908;52.344;16.858;2023-11-21T07:59:00;20.40;;;13.70;;
47155;SDS011;32908;52.344;16.858;2023-11-21T08:01:32;19.00;;;13.10;;
47155;SDS011;32908;52.344;16.858;2023-11-21T08:04:02;21.70;;;13.70;;
47155;SDS011;32908;52.344;16.858;2023-11-21T08:06:34;17.80;;;12.20;;
47155;SDS011;32908;52.344;16.858;2023-11-21T08:09:04;18.30;;;12.30;;
47155;SDS011;32908;52.344;16.858;2023-11-21T08:11:35;19.30;;;12.50;;
47155;SDS011;32908;52.344;16.858;2023-11-21T08:14:06;18.50;;;12.10;;
47155;SDS011;32908;52.344;16.858;2023-11-21T08:16:36;18.40;;;12.80;;
47155;SDS011;32908;52.344;16.858;2023-11-21T08:19:07;17.50;;;12.00;;
47155;SDS011;32908;52.344;16.858;2023-11-21T08:21:37;18.00;;;12.30;;
47155;SDS011;32908;52.344;16.858;2023-11-21T08:24:08;19.60;;;13.00;;
47155;SDS011;32908;52.344;16.858;2023-11-21T08:26:39;17.40;;;12.00;;
47155;SDS011;32908;52.344;16.858;2023-11-21T08:29:09;17.30;;;11.10;;
47155;SDS011;32908;52.344;16.858;2023-11-21T08:31:39;15.70;;;10.40;;
47155;SDS011;32908;52.344;16.858;2023-11-21T08:34:10;16.50;;;10.60;;
47155;SDS011;32908;52.344;16.858;2023-11-21T08:36:42;14.30;;;10.10;;
47155;SDS011;32908;52.344;16.858;2023-11-21T08:39:13;14.10;;;9.90;;
47155;SDS011;32908;52.344;16.858;2023-11-21T08:41:44;15.00;;;9.80;;
47155;SDS011;32908;52.344;16.858;2023-11-21T08:44:14;14.00;;;10.10;;
47155;SDS011;32908;52.344;16.858;2023-11-21T08:46:45;13.90;;;9.40;;
47155;SDS011;32908;52.344;16.858;2023-11-21T08:49:16;14.20;;;9.60;;
47155;SDS011;32908;52.344;16.858;2023-11-21T08:51:47;13.00;;;10.00;;
47155;SDS011;32908;52.344;16.858;2023-11-21T08:54:17;13.10;;;9.30;;
47155;SDS011;32908;52.344;16.858;2023-11-21T08:56:48;11.70;;;8.80;;
47155;SDS011;32908;52.344;16.858;2023-11-21T08:59:18;12.40;;;9.40;;
47155;SDS011;32908;52.344;16.858;2023-11-21T09:01:49;13.40;;;8.60;;
47155;SDS011;32908;52.344;16.858;2023-11-21T09:04:19;11.90;;;9.10;;
47155;SDS011;32908;52.344;16.858;2023-11-21T09:06:50;12.50;;;9.50;;
47155;SDS011;32908;52.344;16.858;2023-11-21T09:09:20;12.60;;;9.10;;
47155;SDS011;32908;52.344;16.858;2023-11-21T09:11:52;13.20;;;9.10;;
47155;SDS011;32908;52.344;16.858;2023-11-21T09:14:22;13.60;;;8.90;;
47155;SDS011;32908;52.344;16.858;2023-11-21T09:16:53;11.60;;;8.80;;
47155;SDS011;32908;52.344;16.858;2023-11-21T09:19:24;12.00;;;8.70;;
47155;SDS011;32908;52.344;16.858;2023-11-21T09:21:54;11.40;;;8.40;;
47155;SDS011;32908;52.344;16.858;2023-11-21T09:24:24;12.00;;;8.70;;
47155;SDS011;32908;52.344;16.858;2023-11-21T09:26:55;11.70;;;9.00;;
47155;SDS011;32908;52.344;16.858;2023-11-21T09:29:25;13.10;;;8.80;;
47155;SDS011;32908;52.344;16.858;2023-11-21T09:31:56;11.80;;;9.30;;
47155;SDS011;32908;52.344;16.858;2023-11-21T09:34:27;13.70;;;9.20;;
47155;SDS011;32908;52.344;16.858;2023-11-21T09:36:57;12.10;;;9.70;;
47155;SDS011;32908;52.344;16.858;2023-11-21T09:39:27;15.60;;;10.10;;
47155;SDS011;32908;52.344;16.858;2023-11-21T09:41:59;15.90;;;11.20;;
47155;SDS011;32908;52.344;16.858;2023-11-21T09:44:40;13.70;;;10.40;;
47155;SDS011;32908;52.344;16.858;2023-11-21T09:49:48;15.40;;;10.50;;
47155;SDS011;32908;52.344;16.858;2023-11-21T09:52:22;17.30;;;11.80;;
47155;SDS011;32908;52.344;16.858;2023-11-21T09:54:53;16.30;;;12.20;;
47155;SDS011;32908;52.344;16.858;2023-11-21T09:57:24;16.60;;;12.40;;
47155;SDS011;32908;52.344;16.858;2023-11-21T09:59:55;19.90;;;12.80;;
47155;SDS011;32908;52.344;16.858;2023-11-21T10:02:26;15.90;;;12.20;;
47155;SDS011;32908;52.344;16.858;2023-11-21T10:04:58;14.90;;;11.80;;
47155;SDS011;32908;52.344;16.858;2023-11-21T10:07:29;17.60;;;11.80;;
47155;SDS011;32908;52.344;16.858;2023-11-21T10:10:01;15.40;;;11.50;;
47155;SDS011;32908;52.344;16.858;2023-11-21T10:12:32;16.40;;;12.40;;
47155;SDS011;32908;52.344;16.858;2023-11-21T10:15:02;18.90;;;13.10;;
47155;SDS011;32908;52.344;16.858;2023-11-21T10:17:34;17.60;;;13.00;;
47155;SDS011;32908;52.344;16.858;2023-11-21T10:20:11;17.90;;;13.70;;
47155;SDS011;32908;52.344;16.858;2023-11-21T10:22:41;20.80;;;14.40;;
47155;SDS011;32908;52.344;16.858;2023-11-21T10:25:12;19.10;;;14.40;;
47155;SDS011;32908;52.344;16.858;2023-11-21T10:27:44;19.00;;;13.50;;
47155;SDS011;32908;52.344;16.858;2023-11-21T10:30:18;20.80;;;14.60;;
47155;SDS011;32908;52.344;16.858;2023-11-21T10:32:49;18.90;;;14.20;;
47155;SDS011;32908;52.344;16.858;2023-11-21T10:35:19;24.10;;;14.60;;
47155;SDS011;32908;52.344;16.858;2023-11-21T10:37:50;21.60;;;14.50;;
47155;SDS011;32908;52.344;16.858;2023-11-21T10:40:30;20.40;;;14.90;;
47155;SDS011;32908;52.344;16.858;2023-11-21T10:43:07;19.30;;;14.70;;
47155;SDS011;32908;52.344;16.858;2023-11-21T10:45:37;22.20;;;15.50;;
47155;SDS011;32908;52.344;16.858;2023-11-21T10:48:09;23.60;;;15.70;;
47155;SDS011;32908;52.344;16.858;2023-11-21T10:50:40;22.20;;;14.70;;
47155;SDS011;32908;52.344;16.858;2023-11-21T10:53:10;22.40;;;15.70;;
47155;SDS011;32908;52.344;16.858;2023-11-21T10:55:40;23.30;;;16.00;;
47155;SDS011;32908;52.344;16.858;2023-11-21T10:58:13;20.40;;;14.70;;
47155;SDS011;32908;52.344;16.858;2023-11-21T11:00:44;23.30;;;15.80;;
47155;SDS011;32908;52.344;16.858;2023-11-21T11:03:14;21.30;;;15.30;;
47155;SDS011;32908;52.344;16.858;2023-11-21T11:05:45;20.40;;;14.50;;
47155;SDS011;32908;52.344;16.858;2023-11-21T11:08:19;23.30;;;15.80;;
47155;SDS011;32908;52.344;16.858;2023-11-21T11:10:53;21.90;;;15.70;;
47155;SDS011;32908;52.344;16.858;2023-11-21T11:13:26;25.00;;;17.00;;
47155;SDS011;32908;52.344;16.858;2023-11-21T11:15:57;24.00;;;17.30;;
47155;SDS011;32908;52.344;16.858;2023-11-21T11:18:29;28.70;;;18.50;;
47155;SDS011;32908;52.344;16.858;2023-11-21T11:21:00;25.60;;;17.80;;
47155;SDS011;32908;52.344;16.858;2023-11-21T11:23:53;27.40;;;18.80;;
47155;SDS011;32908;52.344;16.858;2023-11-21T11:26:32;24.80;;;16.80;;
47155;SDS011;32908;52.344;16.858;2023-11-21T11:29:10;28.00;;;18.10;;
47155;SDS011;32908;52.344;16.858;2023-11-21T11:31:50;28.40;;;18.00;;
47155;SDS011;32908;52.344;16.858;2023-11-21T11:34:30;27.00;;;17.60;;
47155;SDS011;32908;52.344;16.858;2023-11-21T11:37:02;29.90;;;18.20;;
47155;SDS011;32908;52.344;16.858;2023-11-21T11:39:36;25.30;;;16.90;;
47155;SDS011;32908;52.344;16.858;2023-11-21T11:42:12;26.60;;;17.90;;
47155;SDS011;32908;52.344;16.858;2023-11-21T11:44:50;29.10;;;19.00;;
47155;SDS011;32908;52.344;16.858;2023-11-21T11:47:23;27.60;;;18.60;;
47155;SDS011;32908;52.344;16.858;2023-11-21T11:50:04;29.40;;;19.40;;
47155;SDS011;32908;52.344;16.858;2023-11-21T11:52:41;29.70;;;18.80;;
47155;SDS011;32908;52.344;16.858;2023-11-21T11:55:13;28.70;;;17.70;;
47155;SDS011;32908;52.344;16.858;2023-11-21T11:57:46;28.70;;;19.60;;
47155;SDS011;32908;52.344;16.858;2023-11-21T12:00:18;26.40;;;17.60;;
47155;SDS011;32908;52.344;16.858;2023-11-21T12:02:53;24.60;;;16.80;;
47155;SDS011;32908;52.344;16.858;2023-11-21T12:05:25;24.70;;;16.30;;
47155;SDS011;32908;52.344;16.858;2023-11-21T12:07:56;24.80;;;17.30;;
47155;SDS011;32908;52.344;16.858;2023-11-21T12:10:29;23.70;;;16.40;;
47155;SDS011;32908;52.344;16.858;2023-11-21T12:13:01;25.00;;;16.10;;
47155;SDS011;32908;52.344;16.858;2023-11-21T12:15:35;22.90;;;15.60;;
47155;SDS011;32908;52.344;16.858;2023-11-21T12:18:06;22.50;;;15.40;;
47155;SDS011;32908;52.344;16.858;2023-11-21T12:20:36;25.10;;;16.10;;
47155;SDS011;32908;52.344;16.858;2023-11-21T12:23:08;23.40;;;15.70;;
47155;SDS011;32908;52.344;16.858;2023-11-21T12:25:41;24.90;;;15.80;;
47155;SDS011;32908;52.344;16.858;2023-11-21T12:28:12;22.00;;;14.70;;
47155;SDS011;32908;52.344;16.858;2023-11-21T12:30:43;23.30;;;16.00;;
47155;SDS011;32908;52.344;16.858;2023-11-21T12:33:13;22.10;;;15.50;;
47155;SDS011;32908;52.344;16.858;2023-11-21T12:35:45;20.50;;;15.00;;
47155;SDS011;32908;52.344;16.858;2023-11-21T12:38:16;22.20;;;15.20;;
47155;SDS011;32908;52.344;16.858;2023-11-21T12:40:47;21.30;;;15.80;;
47155;SDS011;32908;52.344;16.858;2023-11-21T12:43:18;22.60;;;16.20;;
47155;SDS011;32908;52.344;16.858;2023-11-21T12:45:48;22.30;;;16.00;;
47155;SDS011;32908;52.344;16.858;2023-11-21T12:48:20;24.60;;;17.00;;
47155;SDS011;32908;52.344;16.858;2023-11-21T12:50:52;25.40;;;17.30;;
47155;SDS011;32908;52.344;16.858;2023-11-21T12:53:23;24.90;;;17.50;;
47155;SDS011;32908;52.344;16.858;2023-11-21T12:55:55;24.70;;;17.10;;
47155;SDS011;32908;52.344;16.858;2023-11-21T12:58:25;27.40;;;17.80;;
47155;SDS011;32908;52.344;16.858;2023-11-21T13:00:56;28.90;;;18.30;;
47155;SDS011;32908;52.344;16.858;2023-11-21T13:03:27;29.50;;;19.50;;
47155;SDS011;32908;52.344;16.858;2023-11-21T13:05:58;32.80;;;20.60;;
47155;SDS011;32908;52.344;16.858;2023-11-21T13:08:30;34.60;;;20.50;;
47155;SDS011;32908;52.344;16.858;2023-11-21T13:11:00;29.50;;;20.10;;
47155;SDS011;32908;52.344;16.858;2023-11-21T13:13:33;35.10;;;18.90;;
47155;SDS011;32908;52.344;16.858;2023-11-21T13:16:07;29.30;;;18.30;;
47155;SDS011;32908;52.344;16.858;2023-11-21T13:18:37;33.40;;;19.40;;
47155;SDS011;32908;52.344;16.858;2023-11-21T13:21:09;29.40;;;19.00;;
47155;SDS011;32908;52.344;16.858;2023-11-21T13:23:41;31.60;;;19.40;;
47155;SDS011;32908;52.344;16.858;2023-11-21T13:26:13;31.50;;;18.90;;
47155;SDS011;32908;52.344;16.858;2023-11-21T13:28:44;33.50;;;19.00;;
47155;SDS011;32908;52.344;16.858;2023-11-21T13:31:14;30.20;;;19.30;;
47155;SDS011;32908;52.344;16.858;2023-11-21T13:33:54;30.90;;;18.80;;
47155;SDS011;32908;52.344;16.858;2023-11-21T13:36:32;29.80;;;18.90;;
47155;SDS011;32908;52.344;16.858;2023-11-21T13:39:03;27.80;;;17.00;;
47155;SDS011;32908;52.344;16.858;2023-11-21T13:41:35;26.80;;;16.70;;
47155;SDS011;32908;52.344;16.858;2023-11-21T13:44:06;27.40;;;16.50;;
47155;SDS011;32908;52.344;16.858;2023-11-21T13:46:43;31.80;;;18.70;;
47155;SDS011;32908;52.344;16.858;2023-11-21T13:49:14;29.90;;;19.00;;
47155;SDS011;32908;52.344;16.858;2023-11-21T13:51:44;36.60;;;19.50;;
47155;SDS011;32908;52.344;16.858;2023-11-21T13:54:18;33.30;;;18.80;;
47155;SDS011;32908;52.344;16.858;2023-11-21T13:56:51;34.30;;;20.20;;
47155;SDS011;32908;52.344;16.858;2023-11-21T13:59:23;32.00;;;19.20;;
47155;SDS011;32908;52.344;16.858;2023-11-21T14:01:56;34.30;;;19.90;;
47155;SDS011;32908;52.344;16.858;2023-11-21T14:04:27;35.80;;;20.40;;
47155;SDS011;32908;52.344;16.858;2023-11-21T14:07:14;35.60;;;19.60;;
47155;SDS011;32908;52.344;16.858;2023-11-21T14:10:05;31.30;;;18.40;;
47155;SDS011;32908;52.344;16.858;2023-11-21T14:12:40;35.00;;;20.50;;
47155;SDS011;32908;52.344;16.858;2023-11-21T14:15:11;33.20;;;19.60;;
47155;SDS011;32908;52.344;16.858;2023-11-21T14:17:46;31.90;;;19.00;;
47155;SDS011;32908;52.344;16.858;2023-11-21T14:20:17;32.00;;;19.20;;
47155;SDS011;32908;52.344;16.858;2023-11-21T14:22:48;31.70;;;19.30;;
47155;SDS011;32908;52.344;16.858;2023-11-21T14:25:19;32.10;;;20.10;;
47155;SDS011;32908;52.344;16.858;2023-11-21T14:27:50;38.30;;;20.80;;
47155;SDS011;32908;52.344;16.858;2023-11-21T14:30:20;42.30;;;21.70;;
47155;SDS011;32908;52.344;16.858;2023-11-21T14:32:51;42.10;;;23.10;;
47155;SDS011;32908;52.344;16.858;2023-11-21T14:35:21;54.20;;;26.20;;